sensor_id;sensor_type;location;lat;lon;timestamp;P1;durP1;ratioP1;P2;durP2;ratioP2
11743;SDS011;5929;51.906;7.674;2023-02-28T00:01:05;11.90;;;6.18;;
11743;SDS011;5929;51.906;7.674;2023-02-28T00:03:32;11.88;;;6.03;;
11743;SDS011;5929;51.906;7.674;2023-02-28T00:06:00;11.52;;;6.45;;
11743;SDS011;5929;51.906;7.674;2023-02-28T00:08:27;12.95;;;6.50;;
11743;SDS011;5929;51.906;7.674;2023-02-28T00:10:56;16.17;;;6.18;;
11743;SDS011;5929;51.906;7.674;2023-02-28T00:13:26;12.02;;;6.70;;
11743;SDS011;5929;51.906;7.674;2023-02-28T00:16:02;10.88;;;6.05;;
11743;SDS011;5929;51.906;7.674;2023-02-28T00:18:31;11.73;;;6.72;;
11743;SDS011;5929;51.906;7.674;2023-02-28T00:20:58;11.50;;;6.28;;
11743;SDS011;5929;51.906;7.674;2023-02-28T00:23:25;13.35;;;6.40;;
11743;SDS011;5929;51.906;7.674;2023-02-28T00:25:53;10.38;;;6.40;;
11743;SDS011;5929;51.906;7.674;2023-02-28T00:28:21;12.05;;;6.22;;
11743;SDS011;5929;51.906;7.674;2023-02-28T00:30:48;11.98;;;5.95;;
11743;SDS011;5929;51.906;7.674;2023-02-28T00:33:15;12.15;;;5.78;;
11743;SDS011;5929;51.906;7.674;2023-02-28T00:35:46;12.85;;;6.80;;
11743;SDS011;5929;51.906;7.674;2023-02-28T00:38:13;10.73;;;6.32;;
11743;SDS011;5929;51.906;7.674;2023-02-28T00:40:40;12.73;;;6.57;;
11743;SDS011;5929;51.906;7.674;2023-02-28T00:43:07;15.90;;;6.43;;
11743;SDS011;5929;51.906;7.674;2023-02-28T00:45:35;15.88;;;6.80;;
11743;SDS011;5929;51.906;7.674;2023-02-28T00:48:02;11.75;;;6.20;;
11743;SDS011;5929;51.906;7.674;2023-02-28T00:50:30;11.75;;;5.95;;
11743;SDS011;5929;51.906;7.674;2023-02-28T00:52:57;13.30;;;6.90;;
11743;SDS011;5929;51.906;7.674;2023-02-28T00:55:23;11.23;;;6.60;;
11743;SDS011;5929;51.906;7.674;2023-02-28T00:57:50;12.80;;;6.05;;
11743;SDS011;5929;51.906;7.674;2023-02-28T01:00:17;10.63;;;6.63;;
11743;SDS011;5929;51.906;7.674;2023-02-28T01:02:46;13.73;;;6.55;;
11743;SDS011;5929;51.906;7.674;2023-02-28T01:08:07;13.38;;;6.55;;
11743;SDS011;5929;51.906;7.674;2023-02-28T01:10:34;12.93;;;6.85;;
11743;SDS011;5929;51.906;7.674;2023-02-28T01:13:02;12.98;;;6.28;;
11743;SDS011;5929;51.906;7.674;2023-02-28T01:15:29;13.88;;;6.45;;
11743;SDS011;5929;51.906;7.674;2023-02-28T01:17:58;10.07;;;5.70;;
11743;SDS011;5929;51.906;7.674;2023-02-28T01:20:25;14.02;;;6.28;;
11743;SDS011;5929;51.906;7.674;2023-02-28T01:22:52;16.15;;;7.18;;
11743;SDS011;5929;51.906;7.674;2023-02-28T01:25:18;11.35;;;6.28;;
11743;SDS011;5929;51.906;7.674;2023-02-28T01:27:45;15.02;;;6.45;;
11743;SDS011;5929;51.906;7.674;2023-02-28T01:30:12;12.60;;;6.75;;
11743;SDS011;5929;51.906;7.674;2023-02-28T01:32:39;10.25;;;6.07;;
11743;SDS011;5929;51.906;7.674;2023-02-28T01:35:08;9.60;;;6.07;;
11743;SDS011;5929;51.906;7.674;2023-02-28T01:37:35;13.57;;;6.95;;
11743;SDS011;5929;51.906;7.674;2023-02-28T01:40:02;13.25;;;6.15;;
11743;SDS011;5929;51.906;7.674;2023-02-28T01:42:29;13.43;;;6.15;;
11743;SDS011;5929;51.906;7.674;2023-02-28T01:45:06;13.35;;;6.63;;
11743;SDS011;5929;51.906;7.674;2023-02-28T01:47:47;11.88;;;6.28;;
11743;SDS011;5929;51.906;7.674;2023-02-28T01:50:17;11.80;;;5.82;;
11743;SDS011;5929;51.906;7.674;2023-02-28T01:52:47;15.05;;;5.90;;
11743;SDS011;5929;51.906;7.674;2023-02-28T01:55:15;12.80;;;5.55;;
11743;SDS011;5929;51.906;7.674;2023-02-28T01:57:45;10.48;;;6.07;;
11743;SDS011;5929;51.906;7.674;2023-02-28T02:00:15;12.68;;;5.70;;
11743;SDS011;5929;51.906;7.674;2023-02-28T02:02:45;11.05;;;6.18;;
11743;SDS011;5929;51.906;7.674;2023-02-28T02:05:15;14.90;;;6.07;;
11743;SDS011;5929;51.906;7.674;2023-02-28T02:07:46;10.73;;;6.20;;
11743;SDS011;5929;51.906;7.674;2023-02-28T02:10:17;8.60;;;5.15;;
11743;SDS011;5929;51.906;7.674;2023-02-28T02:12:51;13.52;;;6.10;;
11743;SDS011;5929;51.906;7.674;2023-02-28T02:15:34;13.50;;;6.03;;
11743;SDS011;5929;51.906;7.674;2023-02-28T02:18:07;9.68;;;5.80;;
11743;SDS011;5929;51.906;7.674;2023-02-28T02:20:51;10.25;;;5.97;;
11743;SDS011;5929;51.906;7.674;2023-02-28T02:23:56;11.88;;;5.50;;
11743;SDS011;5929;51.906;7.674;2023-02-28T02:26:55;11.18;;;6.18;;
11743;SDS011;5929;51.906;7.674;2023-02-28T02:32:42;11.68;;;6.00;;
11743;SDS011;5929;51.906;7.674;2023-02-28T02:35:31;10.38;;;5.97;;
11743;SDS011;5929;51.906;7.674;2023-02-28T02:38:07;10.25;;;5.78;;
11743;SDS011;5929;51.906;7.674;2023-02-28T02:40:38;10.93;;;5.93;;
11743;SDS011;5929;51.906;7.674;2023-02-28T02:43:11;10.00;;;5.78;;
11743;SDS011;5929;51.906;7.674;2023-02-28T02:45:43;10.70;;;6.55;;
11743;SDS011;5929;51.906;7.674;2023-02-28T02:48:16;9.57;;;5.75;;
11743;SDS011;5929;51.906;7.674;2023-02-28T02:50:48;15.48;;;6.65;;
11743;SDS011;5929;51.906;7.674;2023-02-28T02:53:20;11.38;;;6.63;;
11743;SDS011;5929;51.906;7.674;2023-02-28T02:55:50;14.90;;;6.93;;
11743;SDS011;5929;51.906;7.674;2023-02-28T02:58:20;14.25;;;7.35;;
11743;SDS011;5929;51.906;7.674;2023-02-28T03:00:52;11.60;;;6.28;;
11743;SDS011;5929;51.906;7.674;2023-02-28T03:03:21;11.13;;;6.80;;
11743;SDS011;5929;51.906;7.674;2023-02-28T03:05:55;11.82;;;6.65;;
11743;SDS011;5929;51.906;7.674;2023-02-28T03:08:23;13.05;;;8.07;;
11743;SDS011;5929;51.906;7.674;2023-02-28T03:10:50;12.45;;;7.43;;
11743;SDS011;5929;51.906;7.674;2023-02-28T03:13:23;11.95;;;7.75;;
11743;SDS011;5929;51.906;7.674;2023-02-28T03:16:07;16.42;;;7.70;;
11743;SDS011;5929;51.906;7.674;2023-02-28T03:18:49;12.05;;;8.07;;
11743;SDS011;5929;51.906;7.674;2023-02-28T03:21:23;12.30;;;7.60;;
11743;SDS011;5929;51.906;7.674;2023-02-28T03:23:56;14.82;;;8.25;;
11743;SDS011;5929;51.906;7.674;2023-02-28T03:26:29;12.50;;;7.63;;
11743;SDS011;5929;51.906;7.674;2023-02-28T03:29:01;11.93;;;6.93;;
11743;SDS011;5929;51.906;7.674;2023-02-28T03:31:32;12.80;;;7.55;;
11743;SDS011;5929;51.906;7.674;2023-02-28T03:34:04;15.00;;;7.90;;
11743;SDS011;5929;51.906;7.674;2023-02-28T03:36:38;14.27;;;8.20;;
11743;SDS011;5929;51.906;7.674;2023-02-28T03:39:11;12.77;;;7.57;;
11743;SDS011;5929;51.906;7.674;2023-02-28T03:41:41;18.25;;;8.63;;
11743;SDS011;5929;51.906;7.674;2023-02-28T03:44:16;15.48;;;7.35;;
11743;SDS011;5929;51.906;7.674;2023-02-28T03:46:47;13.82;;;7.18;;
11743;SDS011;5929;51.906;7.674;2023-02-28T03:49:20;16.95;;;7.90;;
11743;SDS011;5929;51.906;7.674;2023-02-28T03:51:52;12.48;;;7.38;;
11743;SDS011;5929;51.906;7.674;2023-02-28T03:54:23;13.15;;;7.20;;
11743;SDS011;5929;51.906;7.674;2023-02-28T03:56:56;12.07;;;7.15;;
11743;SDS011;5929;51.906;7.674;2023-02-28T03:59:30;14.70;;;8.25;;
11743;SDS011;5929;51.906;7.674;2023-02-28T04:02:01;12.00;;;7.50;;
11743;SDS011;5929;51.906;7.674;2023-02-28T04:04:28;14.20;;;7.60;;
11743;SDS011;5929;51.906;7.674;2023-02-28T04:07:02;13.60;;;7.07;;
11743;SDS011;5929;51.906;7.674;2023-02-28T04:09:31;13.13;;;7.43;;
11743;SDS011;5929;51.906;7.674;2023-02-28T04:11:57;11.93;;;7.18;;
11743;SDS011;5929;51.906;7.674;2023-02-28T04:14:24;17.65;;;8.02;;
11743;SDS011;5929;51.906;7.674;2023-02-28T04:16:51;13.80;;;7.30;;
11743;SDS011;5929;51.906;7.674;2023-02-28T04:19:21;14.50;;;8.25;;
11743;SDS011;5929;51.906;7.674;2023-02-28T04:21:48;13.82;;;8.25;;
11743;SDS011;5929;51.906;7.674;2023-02-28T04:24:18;12.98;;;7.38;;
11743;SDS011;5929;51.906;7.674;2023-02-28T04:26:48;14.73;;;7.75;;
11743;SDS011;5929;51.906;7.674;2023-02-28T04:29:18;15.35;;;6.93;;
11743;SDS011;5929;51.906;7.674;2023-02-28T04:31:46;11.95;;;7.13;;
11743;SDS011;5929;51.906;7.674;2023-02-28T04:34:13;15.60;;;7.47;;
11743;SDS011;5929;51.906;7.674;2023-02-28T04:36:40;14.73;;;7.90;;
11743;SDS011;5929;51.906;7.674;2023-02-28T04:39:07;15.10;;;7.35;;
11743;SDS011;5929;51.906;7.674;2023-02-28T04:41:36;14.18;;;6.93;;
11743;SDS011;5929;51.906;7.674;2023-02-28T04:44:03;13.50;;;8.20;;
11743;SDS011;5929;51.906;7.674;2023-02-28T04:46:30;11.27;;;7.53;;
11743;SDS011;5929;51.906;7.674;2023-02-28T04:48:57;11.65;;;7.13;;
11743;SDS011;5929;51.906;7.674;2023-02-28T04:51:24;10.98;;;6.88;;
11743;SDS011;5929;51.906;7.674;2023-02-28T04:53:51;12.95;;;7.38;;
11743;SDS011;5929;51.906;7.674;2023-02-28T04:56:18;13.75;;;7.93;;
11743;SDS011;5929;51.906;7.674;2023-02-28T04:58:46;16.02;;;7.30;;
11743;SDS011;5929;51.906;7.674;2023-02-28T05:01:24;11.15;;;7.15;;
11743;SDS011;5929;51.906;7.674;2023-02-28T05:03:52;12.38;;;6.57;;
11743;SDS011;5929;51.906;7.674;2023-02-28T05:06:21;11.50;;;6.20;;
11743;SDS011;5929;51.906;7.674;2023-02-28T05:08:49;12.27;;;6.68;;
11743;SDS011;5929;51.906;7.674;2023-02-28T05:11:17;13.23;;;7.20;;
11743;SDS011;5929;51.906;7.674;2023-02-28T05:13:47;11.90;;;7.20;;
11743;SDS011;5929;51.906;7.674;2023-02-28T05:16:15;11.68;;;6.95;;
11743;SDS011;5929;51.906;7.674;2023-02-28T05:18:43;15.45;;;7.15;;
11743;SDS011;5929;51.906;7.674;2023-02-28T05:21:26;14.23;;;7.35;;
11743;SDS011;5929;51.906;7.674;2023-02-28T05:23:56;12.70;;;7.40;;
11743;SDS011;5929;51.906;7.674;2023-02-28T05:26:24;17.00;;;8.65;;
11743;SDS011;5929;51.906;7.674;2023-02-28T05:28:53;17.33;;;8.55;;
11743;SDS011;5929;51.906;7.674;2023-02-28T05:31:20;14.68;;;7.50;;
11743;SDS011;5929;51.906;7.674;2023-02-28T05:33:47;11.80;;;6.90;;
11743;SDS011;5929;51.906;7.674;2023-02-28T05:36:14;15.50;;;7.47;;
11743;SDS011;5929;51.906;7.674;2023-02-28T05:38:41;11.80;;;7.28;;
11743;SDS011;5929;51.906;7.674;2023-02-28T05:41:09;14.02;;;7.72;;
11743;SDS011;5929;51.906;7.674;2023-02-28T05:43:36;13.07;;;7.93;;
11743;SDS011;5929;51.906;7.674;2023-02-28T05:46:06;14.38;;;8.82;;
11743;SDS011;5929;51.906;7.674;2023-02-28T05:48:34;16.25;;;7.32;;
11743;SDS011;5929;51.906;7.674;2023-02-28T05:51:02;14.73;;;7.75;;
11743;SDS011;5929;51.906;7.674;2023-02-28T05:53:30;12.18;;;7.65;;
11743;SDS011;5929;51.906;7.674;2023-02-28T05:55:57;14.00;;;7.65;;
11743;SDS011;5929;51.906;7.674;2023-02-28T05:58:24;14.77;;;7.82;;
11743;SDS011;5929;51.906;7.674;2023-02-28T06:00:55;17.02;;;8.05;;
11743;SDS011;5929;51.906;7.674;2023-02-28T06:03:24;13.57;;;8.45;;
11743;SDS011;5929;51.906;7.674;2023-02-28T06:05:53;12.60;;;7.68;;
11743;SDS011;5929;51.906;7.674;2023-02-28T06:08:20;12.50;;;7.72;;
11743;SDS011;5929;51.906;7.674;2023-02-28T06:10:47;16.42;;;6.95;;
11743;SDS011;5929;51.906;7.674;2023-02-28T06:13:14;14.27;;;7.55;;
11743;SDS011;5929;51.906;7.674;2023-02-28T06:15:40;15.70;;;8.00;;
11743;SDS011;5929;51.906;7.674;2023-02-28T06:18:07;11.95;;;7.00;;
11743;SDS011;5929;51.906;7.674;2023-02-28T06:20:35;15.25;;;7.45;;
11743;SDS011;5929;51.906;7.674;2023-02-28T06:23:02;11.20;;;6.85;;
11743;SDS011;5929;51.906;7.674;2023-02-28T06:25:29;11.98;;;7.55;;
11743;SDS011;5929;51.906;7.674;2023-02-28T06:27:56;13.07;;;7.38;;
11743;SDS011;5929;51.906;7.674;2023-02-28T06:30:23;13.77;;;6.65;;
11743;SDS011;5929;51.906;7.674;2023-02-28T06:32:52;12.38;;;7.10;;
11743;SDS011;5929;51.906;7.674;2023-02-28T06:35:19;11.88;;;6.72;;
11743;SDS011;5929;51.906;7.674;2023-02-28T06:37:47;13.25;;;7.30;;
11743;SDS011;5929;51.906;7.674;2023-02-28T06:40:14;12.30;;;7.20;;
11743;SDS011;5929;51.906;7.674;2023-02-28T06:42:41;15.25;;;7.70;;
11743;SDS011;5929;51.906;7.674;2023-02-28T06:45:08;12.18;;;6.38;;
11743;SDS011;5929;51.906;7.674;2023-02-28T06:47:36;13.30;;;6.45;;
11743;SDS011;5929;51.906;7.674;2023-02-28T06:50:05;15.52;;;7.05;;
11743;SDS011;5929;51.906;7.674;2023-02-28T06:52:33;11.27;;;7.03;;
11743;SDS011;5929;51.906;7.674;2023-02-28T06:55:04;13.95;;;7.35;;
11743;SDS011;5929;51.906;7.674;2023-02-28T06:57:34;11.95;;;6.95;;
11743;SDS011;5929;51.906;7.674;2023-02-28T07:00:03;14.30;;;7.60;;
11743;SDS011;5929;51.906;7.674;2023-02-28T07:02:32;12.82;;;7.57;;
11743;SDS011;5929;51.906;7.674;2023-02-28T07:04:59;15.52;;;7.47;;
11743;SDS011;5929;51.906;7.674;2023-02-28T07:07:26;14.90;;;8.13;;
11743;SDS011;5929;51.906;7.674;2023-02-28T07:09:53;13.55;;;7.68;;
11743;SDS011;5929;51.906;7.674;2023-02-28T07:12:21;10.55;;;7.43;;
11743;SDS011;5929;51.906;7.674;2023-02-28T07:14:48;16.33;;;8.13;;
11743;SDS011;5929;51.906;7.674;2023-02-28T07:17:19;12.40;;;7.82;;
11743;SDS011;5929;51.906;7.674;2023-02-28T07:19:46;13.48;;;7.25;;
11743;SDS011;5929;51.906;7.674;2023-02-28T07:22:13;15.20;;;7.70;;
11743;SDS011;5929;51.906;7.674;2023-02-28T07:24:40;13.82;;;7.45;;
11743;SDS011;5929;51.906;7.674;2023-02-28T07:27:07;9.93;;;6.53;;
11743;SDS011;5929;51.906;7.674;2023-02-28T07:29:35;12.95;;;7.28;;
11743;SDS011;5929;51.906;7.674;2023-02-28T07:32:02;14.68;;;7.85;;
11743;SDS011;5929;51.906;7.674;2023-02-28T07:34:29;13.65;;;7.47;;
11743;SDS011;5929;51.906;7.674;2023-02-28T07:36:56;11.07;;;7.03;;
11743;SDS011;5929;51.906;7.674;2023-02-28T07:39:23;12.63;;;7.20;;
11743;SDS011;5929;51.906;7.674;2023-02-28T07:41:49;13.23;;;7.45;;
11743;SDS011;5929;51.906;7.674;2023-02-28T07:44:16;11.68;;;7.35;;
11743;SDS011;5929;51.906;7.674;2023-02-28T07:46:44;13.48;;;7.60;;
11743;SDS011;5929;51.906;7.674;2023-02-28T07:49:11;15.88;;;7.50;;
11743;SDS011;5929;51.906;7.674;2023-02-28T07:51:40;14.30;;;7.18;;
11743;SDS011;5929;51.906;7.674;2023-02-28T07:54:07;13.05;;;7.22;;
11743;SDS011;5929;51.906;7.674;2023-02-28T07:56:33;13.45;;;6.85;;
11743;SDS011;5929;51.906;7.674;2023-02-28T07:59:00;17.63;;;6.72;;
11743;SDS011;5929;51.906;7.674;2023-02-28T08:01:27;10.52;;;6.10;;
11743;SDS011;5929;51.906;7.674;2023-02-28T08:03:55;9.02;;;5.60;;
11743;SDS011;5929;51.906;7.674;2023-02-28T08:06:24;10.93;;;5.95;;
11743;SDS011;5929;51.906;7.674;2023-02-28T08:08:52;13.60;;;5.07;;
11743;SDS011;5929;51.906;7.674;2023-02-28T08:11:21;10.02;;;5.38;;
11743;SDS011;5929;51.906;7.674;2023-02-28T08:13:47;10.95;;;4.95;;
11743;SDS011;5929;51.906;7.674;2023-02-28T08:16:14;8.00;;;4.60;;
11743;SDS011;5929;51.906;7.674;2023-02-28T08:18:46;8.70;;;5.05;;
11743;SDS011;5929;51.906;7.674;2023-02-28T08:21:15;10.18;;;4.25;;
11743;SDS011;5929;51.906;7.674;2023-02-28T08:23:42;8.73;;;4.10;;
11743;SDS011;5929;51.906;7.674;2023-02-28T08:26:08;14.70;;;4.07;;
11743;SDS011;5929;51.906;7.674;2023-02-28T08:28:36;11.45;;;3.72;;
11743;SDS011;5929;51.906;7.674;2023-02-28T08:31:08;7.00;;;3.33;;
11743;SDS011;5929;51.906;7.674;2023-02-28T08:33:36;7.25;;;3.58;;
11743;SDS011;5929;51.906;7.674;2023-02-28T08:36:04;8.98;;;3.90;;
11743;SDS011;5929;51.906;7.674;2023-02-28T08:38:33;9.60;;;3.65;;
11743;SDS011;5929;51.906;7.674;2023-02-28T08:41:00;7.18;;;2.97;;
11743;SDS011;5929;51.906;7.674;2023-02-28T08:43:32;8.73;;;3.60;;
11743;SDS011;5929;51.906;7.674;2023-02-28T08:46:00;7.40;;;3.50;;
11743;SDS011;5929;51.906;7.674;2023-02-28T08:48:27;6.38;;;3.30;;
11743;SDS011;5929;51.906;7.674;2023-02-28T08:50:56;6.45;;;3.08;;
11743;SDS011;5929;51.906;7.674;2023-02-28T08:53:23;5.38;;;2.78;;
11743;SDS011;5929;51.906;7.674;2023-02-28T08:56:01;5.40;;;2.90;;
11743;SDS011;5929;51.906;7.674;2023-02-28T08:58:29;6.93;;;2.50;;
11743;SDS011;5929;51.906;7.674;2023-02-28T09:00:56;5.25;;;2.55;;
11743;SDS011;5929;51.906;7.674;2023-02-28T09:03:23;8.30;;;3.22;;
11743;SDS011;5929;51.906;7.674;2023-02-28T09:05:53;5.47;;;2.50;;
11743;SDS011;5929;51.906;7.674;2023-02-28T09:08:20;6.25;;;2.20;;
11743;SDS011;5929;51.906;7.674;2023-02-28T09:10:47;4.95;;;2.50;;
11743;SDS011;5929;51.906;7.674;2023-02-28T09:13:16;5.95;;;2.63;;
11743;SDS011;5929;51.906;7.674;2023-02-28T09:15:42;6.00;;;2.55;;
11743;SDS011;5929;51.906;7.674;2023-02-28T09:18:09;4.82;;;2.13;;
11743;SDS011;5929;51.906;7.674;2023-02-28T09:20:37;3.47;;;1.65;;
11743;SDS011;5929;51.906;7.674;2023-02-28T09:23:08;5.68;;;1.90;;
11743;SDS011;5929;51.906;7.674;2023-02-28T09:25:35;4.10;;;1.75;;
11743;SDS011;5929;51.906;7.674;2023-02-28T09:28:05;4.65;;;1.90;;
11743;SDS011;5929;51.906;7.674;2023-02-28T09:30:33;3.20;;;1.40;;
11743;SDS011;5929;51.906;7.674;2023-02-28T09:33:00;3.80;;;1.42;;
11743;SDS011;5929;51.906;7.674;2023-02-28T09:35:27;4.07;;;1.60;;
11743;SDS011;5929;51.906;7.674;2023-02-28T09:37:55;4.80;;;1.40;;
11743;SDS011;5929;51.906;7.674;2023-02-28T09:40:23;4.40;;;1.92;;
11743;SDS011;5929;51.906;7.674;2023-02-28T09:42:52;3.50;;;1.40;;
11743;SDS011;5929;51.906;7.674;2023-02-28T09:45:22;4.35;;;1.30;;
11743;SDS011;5929;51.906;7.674;2023-02-28T09:47:55;4.13;;;1.55;;
11743;SDS011;5929;51.906;7.674;2023-02-28T09:50:28;2.65;;;1.10;;
11743;SDS011;5929;51.906;7.674;2023-02-28T09:53:01;3.05;;;1.23;;
11743;SDS011;5929;51.906;7.674;2023-02-28T09:55:32;4.50;;;1.27;;
11743;SDS011;5929;51.906;7.674;2023-02-28T09:58:03;2.97;;;1.20;;
11743;SDS011;5929;51.906;7.674;2023-02-28T10:00:32;3.83;;;1.48;;
11743;SDS011;5929;51.906;7.674;2023-02-28T10:03:23;4.13;;;1.30;;
11743;SDS011;5929;51.906;7.674;2023-02-28T10:05:56;4.13;;;1.42;;
11743;SDS011;5929;51.906;7.674;2023-02-28T10:08:30;4.43;;;1.70;;
11743;SDS011;5929;51.906;7.674;2023-02-28T10:11:06;3.97;;;1.55;;
11743;SDS011;5929;51.906;7.674;2023-02-28T10:13:37;3.78;;;1.50;;
11743;SDS011;5929;51.906;7.674;2023-02-28T10:16:16;4.82;;;1.75;;
11743;SDS011;5929;51.906;7.674;2023-02-28T10:18:50;5.30;;;1.70;;
11743;SDS011;5929;51.906;7.674;2023-02-28T10:21:23;5.35;;;1.70;;
11743;SDS011;5929;51.906;7.674;2023-02-28T10:23:57;5.45;;;2.10;;
11743;SDS011;5929;51.906;7.674;2023-02-28T10:26:29;4.00;;;1.38;;
11743;SDS011;5929;51.906;7.674;2023-02-28T10:28:57;4.05;;;1.35;;
11743;SDS011;5929;51.906;7.674;2023-02-28T10:31:25;5.68;;;1.42;;
11743;SDS011;5929;51.906;7.674;2023-02-28T10:33:56;3.30;;;1.40;;
11743;SDS011;5929;51.906;7.674;2023-02-28T10:36:23;3.65;;;1.42;;
11743;SDS011;5929;51.906;7.674;2023-02-28T10:38:50;3.30;;;1.50;;
11743;SDS011;5929;51.906;7.674;2023-02-28T10:41:26;3.45;;;1.40;;
11743;SDS011;5929;51.906;7.674;2023-02-28T10:44:12;4.05;;;1.80;;
11743;SDS011;5929;51.906;7.674;2023-02-28T10:46:41;3.85;;;1.60;;
11743;SDS011;5929;51.906;7.674;2023-02-28T10:49:13;3.83;;;1.48;;
11743;SDS011;5929;51.906;7.674;2023-02-28T10:51:43;4.28;;;1.67;;
11743;SDS011;5929;51.906;7.674;2023-02-28T10:54:14;3.95;;;1.58;;
11743;SDS011;5929;51.906;7.674;2023-02-28T10:56:42;6.43;;;1.70;;
11743;SDS011;5929;51.906;7.674;2023-02-28T10:59:22;4.00;;;1.50;;
11743;SDS011;5929;51.906;7.674;2023-02-28T11:01:53;4.57;;;1.60;;
11743;SDS011;5929;51.906;7.674;2023-02-28T11:04:32;4.80;;;1.60;;
11743;SDS011;5929;51.906;7.674;2023-02-28T11:07:01;3.25;;;1.38;;
11743;SDS011;5929;51.906;7.674;2023-02-28T11:09:30;3.50;;;1.40;;
11743;SDS011;5929;51.906;7.674;2023-02-28T11:12:00;5.15;;;1.48;;
11743;SDS011;5929;51.906;7.674;2023-02-28T11:14:28;3.38;;;1.50;;
11743;SDS011;5929;51.906;7.674;2023-02-28T11:17:00;4.13;;;1.60;;
11743;SDS011;5929;51.906;7.674;2023-02-28T11:19:40;6.20;;;1.48;;
11743;SDS011;5929;51.906;7.674;2023-02-28T11:22:15;2.95;;;1.30;;
11743;SDS011;5929;51.906;7.674;2023-02-28T11:24:45;2.85;;;1.20;;
11743;SDS011;5929;51.906;7.674;2023-02-28T11:27:24;3.65;;;1.42;;
11743;SDS011;5929;51.906;7.674;2023-02-28T11:30:12;3.95;;;1.50;;
11743;SDS011;5929;51.906;7.674;2023-02-28T11:32:53;4.47;;;1.48;;
11743;SDS011;5929;51.906;7.674;2023-02-28T11:35:23;3.95;;;1.40;;
11743;SDS011;5929;51.906;7.674;2023-02-28T11:37:52;4.13;;;1.00;;
11743;SDS011;5929;51.906;7.674;2023-02-28T11:40:19;3.58;;;1.30;;
11743;SDS011;5929;51.906;7.674;2023-02-28T11:42:54;4.43;;;1.08;;
11743;SDS011;5929;51.906;7.674;2023-02-28T11:45:34;4.03;;;1.05;;
11743;SDS011;5929;51.906;7.674;2023-02-28T11:48:10;4.35;;;1.13;;
11743;SDS011;5929;51.906;7.674;2023-02-28T11:50:48;5.00;;;1.15;;
11743;SDS011;5929;51.906;7.674;2023-02-28T11:53:36;3.25;;;1.20;;
11743;SDS011;5929;51.906;7.674;2023-02-28T11:56:15;3.15;;;1.10;;
11743;SDS011;5929;51.906;7.674;2023-02-28T11:58:50;4.53;;;1.67;;
11743;SDS011;5929;51.906;7.674;2023-02-28T12:01:28;4.07;;;1.50;;
11743;SDS011;5929;51.906;7.674;2023-02-28T12:04:08;4.55;;;1.40;;
11743;SDS011;5929;51.906;7.674;2023-02-28T12:06:45;5.30;;;1.45;;
11743;SDS011;5929;51.906;7.674;2023-02-28T12:09:23;4.35;;;1.52;;
11743;SDS011;5929;51.906;7.674;2023-02-28T12:12:02;4.10;;;1.58;;
11743;SDS011;5929;51.906;7.674;2023-02-28T12:14:47;4.57;;;1.58;;
11743;SDS011;5929;51.906;7.674;2023-02-28T12:17:27;5.15;;;1.80;;
11743;SDS011;5929;51.906;7.674;2023-02-28T12:20:05;4.82;;;1.48;;
11743;SDS011;5929;51.906;7.674;2023-02-28T12:22:45;4.20;;;1.55;;
11743;SDS011;5929;51.906;7.674;2023-02-28T12:28:09;5.18;;;1.83;;
11743;SDS011;5929;51.906;7.674;2023-02-28T12:30:41;4.30;;;1.75;;
11743;SDS011;5929;51.906;7.674;2023-02-28T12:33:16;4.00;;;1.50;;
11743;SDS011;5929;51.906;7.674;2023-02-28T12:35:47;4.20;;;1.85;;
11743;SDS011;5929;51.906;7.674;2023-02-28T12:38:18;5.15;;;1.88;;
11743;SDS011;5929;51.906;7.674;2023-02-28T12:40:50;4.65;;;1.50;;
11743;SDS011;5929;51.906;7.674;2023-02-28T12:43:22;3.97;;;1.77;;
11743;SDS011;5929;51.906;7.674;2023-02-28T12:45:55;7.53;;;2.25;;
11743;SDS011;5929;51.906;7.674;2023-02-28T12:48:27;4.50;;;1.67;;
11743;SDS011;5929;51.906;7.674;2023-02-28T12:51:01;3.95;;;1.92;;
11743;SDS011;5929;51.906;7.674;2023-02-28T12:53:33;4.50;;;1.98;;
11743;SDS011;5929;51.906;7.674;2023-02-28T12:56:09;5.10;;;1.85;;
11743;SDS011;5929;51.906;7.674;2023-02-28T12:58:45;4.68;;;2.13;;
11743;SDS011;5929;51.906;7.674;2023-02-28T13:04:28;4.38;;;2.00;;
11743;SDS011;5929;51.906;7.674;2023-02-28T13:07:08;4.45;;;2.22;;
11743;SDS011;5929;51.906;7.674;2023-02-28T13:09:52;7.43;;;2.30;;
11743;SDS011;5929;51.906;7.674;2023-02-28T13:12:22;3.95;;;1.70;;
11743;SDS011;5929;51.906;7.674;2023-02-28T13:14:50;6.65;;;1.75;;
11743;SDS011;5929;51.906;7.674;2023-02-28T13:17:37;5.13;;;2.25;;
11743;SDS011;5929;51.906;7.674;2023-02-28T13:20:14;4.53;;;1.85;;
11743;SDS011;5929;51.906;7.674;2023-02-28T13:22:43;3.70;;;1.38;;
11743;SDS011;5929;51.906;7.674;2023-02-28T13:34:47;4.18;;;1.55;;
11743;SDS011;5929;51.906;7.674;2023-02-28T13:37:48;5.47;;;1.70;;
11743;SDS011;5929;51.906;7.674;2023-02-28T13:40:27;3.78;;;1.50;;
11743;SDS011;5929;51.906;7.674;2023-02-28T13:43:01;4.35;;;1.73;;
11743;SDS011;5929;51.906;7.674;2023-02-28T13:45:29;4.70;;;1.88;;
11743;SDS011;5929;51.906;7.674;2023-02-28T13:48:03;3.63;;;1.30;;
11743;SDS011;5929;51.906;7.674;2023-02-28T13:50:32;5.65;;;1.75;;
11743;SDS011;5929;51.906;7.674;2023-02-28T13:56:01;5.15;;;1.70;;
11743;SDS011;5929;51.906;7.674;2023-02-28T13:58:39;4.63;;;1.50;;
11743;SDS011;5929;51.906;7.674;2023-02-28T14:01:16;4.28;;;1.63;;
11743;SDS011;5929;51.906;7.674;2023-02-28T14:03:58;3.08;;;1.35;;
11743;SDS011;5929;51.906;7.674;2023-02-28T14:06:37;5.03;;;1.88;;
11743;SDS011;5929;51.906;7.674;2023-02-28T14:09:16;6.88;;;1.98;;
11743;SDS011;5929;51.906;7.674;2023-02-28T14:11:49;3.60;;;1.40;;
11743;SDS011;5929;51.906;7.674;2023-02-28T14:17:22;3.55;;;1.50;;
11743;SDS011;5929;51.906;7.674;2023-02-28T14:19:51;3.67;;;1.60;;
11743;SDS011;5929;51.906;7.674;2023-02-28T14:22:21;4.63;;;1.77;;
11743;SDS011;5929;51.906;7.674;2023-02-28T14:25:20;3.55;;;1.70;;
11743;SDS011;5929;51.906;7.674;2023-02-28T14:27:53;4.68;;;1.75;;
11743;SDS011;5929;51.906;7.674;2023-02-28T14:33:25;5.57;;;1.80;;
11743;SDS011;5929;51.906;7.674;2023-02-28T14:36:03;4.72;;;1.55;;
11743;SDS011;5929;51.906;7.674;2023-02-28T14:38:40;5.10;;;1.88;;
11743;SDS011;5929;51.906;7.674;2023-02-28T14:41:20;3.83;;;1.58;;
11743;SDS011;5929;51.906;7.674;2023-02-28T14:43:50;5.65;;;2.65;;
11743;SDS011;5929;51.906;7.674;2023-02-28T14:46:18;4.60;;;2.17;;
11743;SDS011;5929;51.906;7.674;2023-02-28T14:48:47;4.05;;;1.65;;
11743;SDS011;5929;51.906;7.674;2023-02-28T14:51:18;4.03;;;2.00;;
11743;SDS011;5929;51.906;7.674;2023-02-28T14:53:47;5.38;;;2.10;;
11743;SDS011;5929;51.906;7.674;2023-02-28T14:56:23;6.10;;;1.95;;
11743;SDS011;5929;51.906;7.674;2023-02-28T14:58:52;4.78;;;2.10;;
11743;SDS011;5929;51.906;7.674;2023-02-28T15:01:21;5.30;;;1.85;;
11743;SDS011;5929;51.906;7.674;2023-02-28T15:03:56;6.97;;;2.00;;
11743;SDS011;5929;51.906;7.674;2023-02-28T15:06:26;5.20;;;2.30;;
11743;SDS011;5929;51.906;7.674;2023-02-28T15:11:47;5.03;;;2.08;;
11743;SDS011;5929;51.906;7.674;2023-02-28T15:14:17;5.10;;;2.13;;
11743;SDS011;5929;51.906;7.674;2023-02-28T15:16:46;4.18;;;2.00;;
11743;SDS011;5929;51.906;7.674;2023-02-28T15:19:19;5.93;;;2.10;;
11743;SDS011;5929;51.906;7.674;2023-02-28T15:21:50;5.10;;;1.83;;
11743;SDS011;5929;51.906;7.674;2023-02-28T15:24:21;6.45;;;2.20;;
11743;SDS011;5929;51.906;7.674;2023-02-28T15:26:58;4.78;;;2.08;;
11743;SDS011;5929;51.906;7.674;2023-02-28T15:29:29;4.47;;;1.67;;
11743;SDS011;5929;51.906;7.674;2023-02-28T15:32:01;3.65;;;1.73;;
11743;SDS011;5929;51.906;7.674;2023-02-28T15:34:33;4.50;;;1.80;;
11743;SDS011;5929;51.906;7.674;2023-02-28T15:37:02;5.95;;;1.80;;
11743;SDS011;5929;51.906;7.674;2023-02-28T15:39:51;5.50;;;2.08;;
11743;SDS011;5929;51.906;7.674;2023-02-28T15:42:20;3.53;;;1.52;;
11743;SDS011;5929;51.906;7.674;2023-02-28T15:44:48;5.18;;;1.60;;
11743;SDS011;5929;51.906;7.674;2023-02-28T15:47:16;5.07;;;1.75;;
11743;SDS011;5929;51.906;7.674;2023-02-28T15:49:45;5.30;;;2.03;;